Terminal Aerodrome Forecast
Issued by NWS Mt. Holly, NJ

Home | Current Version | Previous Version | Text Only | Print | Product List | Glossary On
Versions: 1 2 3 4 5 6 7 8 9 10 11 12 13 14 15 16 17 18 19 20 21 22 23 24 25
702
FTUS41 KPHI 062022 AAA
TAFACY
TAF AMD
KACY 062022Z 0620/0718 16011KT P6SM FEW007 OVC015
      TEMPO 0621/0624 2SM -DZ BR BKN007 OVC015
     FM070000 12007KT 1SM -DZ BR OVC004
     FM070600 05008KT 2SM -DZ BR OVC004
     FM071700 26008KT P6SM BKN015=

USA.gov is the U.S. government's official web portal to all federal, state and local government web resources and services.